Appam, North Dakota
Current Conditions -  °F | °C
As of 3:55 PM on Thursday 18 Dec 2014 (Local Time) from KD50 Reporting Station
Overcast Overcast  
Wind Chill: 16°   Ceiling: 600
Heat Index: 25°   Visibility: 10mi
Dew Point: 25°   Wind: 8mph
Humidity: 100%   Direction: 190°S
Pressure: 29.94"   Gusts: NA
Location:  48.59°N, 103.406°W
Report Text: KD50 182155Z AUTO 19007KT 10SM OVC006 M04/M04 A2994 RMK AO2
Loading
Personal Weather Stations






























Interactive Weather Map New forecast layout! Learn more

10-Day Weather Forecast

Advertisements
Track Severe Weather on mobile